createdAt,value
2023-11-16T00:00:09.374Z,6.305
2023-11-16T00:01:09.405Z,6.560
2023-11-16T00:02:09.271Z,7.880
2023-11-16T00:03:09.320Z,10.600
2023-11-16T00:04:09.780Z,9.915
2023-11-16T00:06:09.523Z,6.680
2023-11-16T00:07:09.446Z,5.800
2023-11-16T00:09:09.174Z,9.840
2023-11-16T00:10:09.025Z,10.240
2023-11-16T00:11:09.042Z,8.480
2023-11-16T00:12:08.931Z,6.640
2023-11-16T00:13:09.473Z,5.240
2023-11-16T00:15:09.200Z,5.560
2023-11-16T00:16:09.146Z,8.520
2023-11-16T00:17:09.239Z,6.400
2023-11-16T00:18:09.034Z,6.600
2023-11-16T00:19:09.161Z,7.800
2023-11-16T00:20:08.839Z,7.240
2023-11-16T00:21:09.565Z,8.840
2023-11-16T00:22:09.579Z,10.080
2023-11-16T00:23:09.301Z,6.960
2023-11-16T00:24:09.132Z,8.560
2023-11-16T00:25:08.893Z,7.360
2023-11-16T00:26:09.701Z,5.469
2023-11-16T00:27:09.399Z,6.590
2023-11-16T00:29:09.133Z,9.200
2023-11-16T00:30:08.835Z,9.760
2023-11-16T00:31:09.767Z,10.308
2023-11-16T00:32:09.932Z,9.480
2023-11-16T00:33:09.788Z,6.640
2023-11-16T00:36:09.231Z,7.760
2023-11-16T00:37:09.094Z,7.920
2023-11-16T00:39:09.582Z,7.960
2023-11-16T00:40:09.578Z,6.280
2023-11-16T00:41:09.345Z,7.800
2023-11-16T00:42:09.146Z,9.200
2023-11-16T00:44:08.893Z,5.240
2023-11-16T00:45:09.494Z,9.400
2023-11-16T00:46:09.683Z,7.720
2023-11-16T00:47:08.893Z,10.840
2023-11-16T00:48:09.084Z,7.760
2023-11-16T00:49:09.369Z,6.880
2023-11-16T00:50:09.132Z,5.560
2023-11-16T00:51:09.037Z,6.160
2023-11-16T00:52:09.026Z,9.000
2023-11-16T00:54:09.593Z,6.720
2023-11-16T00:55:09.643Z,4.920
2023-11-16T00:56:09.393Z,6.440
2023-11-16T00:58:09.025Z,9.320
2023-11-16T01:00:09.699Z,9.200
2023-11-16T01:01:09.097Z,10.640
2023-11-16T01:02:09.385Z,9.280
2023-11-16T01:03:09.510Z,11.880
2023-11-16T01:04:08.896Z,5.760
2023-11-16T01:05:08.946Z,8.160
2023-11-16T01:06:09.715Z,10.160
2023-11-16T01:07:09.531Z,10.240
2023-11-16T01:08:09.184Z,6.840
2023-11-16T01:10:09.003Z,12.400
2023-11-16T01:11:09.701Z,6.360
2023-11-16T01:12:09.361Z,5.840
2023-11-16T01:13:09.739Z,4.407
2023-11-16T01:15:09.175Z,6.400
2023-11-16T01:16:09.088Z,5.760
2023-11-16T01:17:09.195Z,8.240
2023-11-16T01:18:09.275Z,5.560
2023-11-16T01:19:09.587Z,5.800
2023-11-16T01:20:09.307Z,9.080
2023-11-16T01:24:11.100Z,6.840
2023-11-16T01:25:09.160Z,9.320
2023-11-16T01:27:09.152Z,7.960
2023-11-16T01:28:09.366Z,11.040
2023-11-16T01:29:09.700Z,9.718
2023-11-16T01:30:09.479Z,8.705
2023-11-16T01:31:09.527Z,12.000
2023-11-16T01:32:09.677Z,10.584
2023-11-16T01:33:09.655Z,9.275
2023-11-16T01:34:09.766Z,8.813
2023-11-16T01:35:09.467Z,8.746
2023-11-16T01:36:09.422Z,8.800
2023-11-16T01:37:09.242Z,8.000
2023-11-16T01:38:08.987Z,7.520
2023-11-16T01:39:09.849Z,7.003
2023-11-16T01:41:09.459Z,7.525
2023-11-16T01:42:09.050Z,5.880
2023-11-16T01:43:08.817Z,5.520
2023-11-16T01:44:09.412Z,6.880
2023-11-16T01:45:08.992Z,6.360
2023-11-16T01:47:08.734Z,8.760
2023-11-16T01:48:09.645Z,6.720
2023-11-16T01:49:09.620Z,7.760
2023-11-16T01:50:09.142Z,7.600
2023-11-16T01:51:09.766Z,8.852
2023-11-16T01:52:09.017Z,8.868
2023-11-16T01:53:09.641Z,8.066
2023-11-16T01:54:09.536Z,9.722
2023-11-16T01:57:09.643Z,4.080
2023-11-16T01:58:09.321Z,7.480
2023-11-16T01:59:08.864Z,7.000
2023-11-16T02:00:09.532Z,5.840
2023-11-16T02:01:09.434Z,6.320
2023-11-16T02:02:09.763Z,8.240
2023-11-16T02:03:09.383Z,7.720
2023-11-16T02:04:13.826Z,8.280
2023-11-16T02:06:09.726Z,7.200
2023-11-16T02:07:08.764Z,8.461
2023-11-16T02:08:09.369Z,5.840
2023-11-16T02:09:09.237Z,7.960
2023-11-16T02:10:09.042Z,8.240
2023-11-16T02:11:09.580Z,8.105
2023-11-16T02:12:08.737Z,8.990
2023-11-16T02:13:09.340Z,7.920
2023-11-16T02:14:08.836Z,7.640
2023-11-16T02:15:09.518Z,7.360
2023-11-16T02:16:09.233Z,5.840
2023-11-16T02:19:09.319Z,7.640
2023-11-16T02:20:08.830Z,5.160
2023-11-16T02:21:09.414Z,6.320
2023-11-16T02:23:09.574Z,7.600
2023-11-16T02:24:09.114Z,7.960
2023-11-16T02:25:08.681Z,6.720
2023-11-16T02:26:09.433Z,5.080
2023-11-16T02:27:09.050Z,6.800
2023-11-16T02:29:09.305Z,8.240
2023-11-16T02:30:08.962Z,11.000
2023-11-16T02:33:09.218Z,11.080
2023-11-16T02:34:09.566Z,8.498
2023-11-16T02:35:09.125Z,7.322
2023-11-16T02:36:09.690Z,7.200
2023-11-16T02:38:08.969Z,6.320
2023-11-16T02:39:09.835Z,5.469
2023-11-16T02:40:08.699Z,4.637
2023-11-16T02:41:09.156Z,9.320
2023-11-16T02:42:09.694Z,8.616
2023-11-16T02:43:09.384Z,8.420
2023-11-16T02:44:08.941Z,7.720
2023-11-16T02:45:09.616Z,6.600
2023-11-16T02:46:09.282Z,5.760
2023-11-16T02:48:09.934Z,6.295
2023-11-16T02:49:09.091Z,8.502
2023-11-16T02:51:09.310Z,7.080
2023-11-16T02:52:09.040Z,5.800
2023-11-16T02:53:09.613Z,4.328
2023-11-16T02:54:09.253Z,4.759
2023-11-16T02:56:09.438Z,6.720
2023-11-16T02:57:09.186Z,7.000
2023-11-16T02:59:09.551Z,4.400
2023-11-16T03:00:09.114Z,2.880
2023-11-16T03:01:09.396Z,3.080
2023-11-16T03:02:09.228Z,4.400
2023-11-16T03:04:09.044Z,3.880
2023-11-16T03:05:08.968Z,1.760
2023-11-16T03:06:09.530Z,3.840
2023-11-16T03:07:16.990Z,5.680
2023-11-16T03:08:09.341Z,6.680
2023-11-16T03:09:08.932Z,3.880
2023-11-16T03:10:09.637Z,2.872
2023-11-16T03:11:09.176Z,5.858
2023-11-16T03:14:09.011Z,5.720
2023-11-16T03:15:09.569Z,5.320
2023-11-16T03:16:09.477Z,7.960
2023-11-16T03:19:09.545Z,3.986
2023-11-16T03:20:09.026Z,4.320
2023-11-16T03:21:09.594Z,1.680
2023-11-16T03:22:09.280Z,3.200
2023-11-16T03:24:09.385Z,2.880
2023-11-16T03:25:09.129Z,4.240
2023-11-16T03:26:09.581Z,3.305
2023-11-16T03:27:09.165Z,4.515
2023-11-16T03:29:09.368Z,5.320
2023-11-16T03:30:09.060Z,5.640
2023-11-16T03:31:09.237Z,6.320
2023-11-16T03:32:08.915Z,4.720
2023-11-16T03:33:09.673Z,5.360
2023-11-16T03:35:09.439Z,5.280
2023-11-16T03:36:09.197Z,6.480
2023-11-16T03:39:09.133Z,3.720
2023-11-16T03:42:09.017Z,5.320
2023-11-16T03:43:09.745Z,4.564
2023-11-16T03:45:08.778Z,4.160
2023-11-16T03:46:09.646Z,4.170
2023-11-16T03:47:09.326Z,2.847
2023-11-16T03:50:09.105Z,3.320
2023-11-16T03:51:08.698Z,5.560
2023-11-16T03:52:09.640Z,5.240
2023-11-16T03:55:09.428Z,3.417
2023-11-16T03:56:09.110Z,2.000
2023-11-16T03:57:08.747Z,3.200
2023-11-16T03:58:09.585Z,4.120
2023-11-16T03:59:09.075Z,6.440
2023-11-16T04:00:09.915Z,4.603
2023-11-16T04:01:08.655Z,4.149
2023-11-16T04:02:09.290Z,4.800
2023-11-16T04:05:09.665Z,3.856
2023-11-16T04:06:09.177Z,3.946
2023-11-16T04:08:09.472Z,3.920
2023-11-16T04:09:09.057Z,4.760
2023-11-16T04:10:09.579Z,5.800
2023-11-16T04:12:08.661Z,6.040
2023-11-16T04:13:09.480Z,7.240
2023-11-16T04:14:09.005Z,5.480
2023-11-16T04:15:09.667Z,4.957
2023-11-16T04:16:08.994Z,5.166
2023-11-16T04:17:09.485Z,4.600
2023-11-16T04:20:08.765Z,5.360
2023-11-16T04:21:09.570Z,7.436
2023-11-16T04:22:09.228Z,6.712
2023-11-16T04:25:09.076Z,6.000
2023-11-16T04:26:08.975Z,6.960
2023-11-16T04:27:09.493Z,9.320
2023-11-16T04:28:09.066Z,6.440
2023-11-16T04:30:09.291Z,7.240
2023-11-16T04:31:09.260Z,7.120
2023-11-16T04:32:08.940Z,7.480
2023-11-16T04:35:09.155Z,7.080
2023-11-16T04:36:08.820Z,6.280
2023-11-16T04:37:09.517Z,6.400
2023-11-16T04:38:09.061Z,6.000
2023-11-16T04:39:09.676Z,6.413
2023-11-16T04:40:09.365Z,6.020
2023-11-16T04:41:08.838Z,4.800
2023-11-16T04:42:09.422Z,5.840
2023-11-16T04:43:09.241Z,7.120
2023-11-16T04:45:09.573Z,6.240
2023-11-16T04:46:09.330Z,5.440
2023-11-16T04:48:09.552Z,4.080
2023-11-16T04:49:09.982Z,4.721
2023-11-16T04:50:09.146Z,4.475
2023-11-16T04:52:09.631Z,4.800
2023-11-16T04:53:09.192Z,5.003
2023-11-16T04:55:12.226Z,4.052
2023-11-16T04:56:09.419Z,5.166
2023-11-16T04:57:08.970Z,3.400
2023-11-16T04:58:09.547Z,8.120
2023-11-16T04:59:08.987Z,7.040
2023-11-16T05:00:09.639Z,7.560
2023-11-16T05:01:08.845Z,4.160
2023-11-16T05:02:09.581Z,5.548
2023-11-16T05:04:08.898Z,3.920
2023-11-16T05:05:08.996Z,7.120
2023-11-16T05:06:09.619Z,5.036
2023-11-16T05:07:08.708Z,3.336
2023-11-16T05:08:09.266Z,4.160
2023-11-16T05:09:08.813Z,3.480
2023-11-16T05:10:09.491Z,5.160
2023-11-16T05:11:08.684Z,5.000
2023-11-16T05:12:09.294Z,5.600
2023-11-16T05:15:09.210Z,5.532
2023-11-16T05:16:10.259Z,4.289
2023-11-16T05:18:08.863Z,3.360
2023-11-16T05:19:08.707Z,3.800
2023-11-16T05:20:09.243Z,6.240
2023-11-16T05:23:09.334Z,4.880
2023-11-16T05:24:08.872Z,6.520
2023-11-16T05:25:09.637Z,4.643
2023-11-16T05:27:08.814Z,3.800
2023-11-16T05:28:09.472Z,5.040
2023-11-16T05:29:08.943Z,4.440
2023-11-16T05:30:09.548Z,6.600
2023-11-16T05:31:09.277Z,5.880
2023-11-16T05:32:08.851Z,5.600
2023-11-16T05:33:09.481Z,5.040
2023-11-16T05:34:09.488Z,6.000
2023-11-16T05:35:09.011Z,5.400
2023-11-16T05:36:09.562Z,5.160
2023-11-16T05:37:09.239Z,5.640
2023-11-16T05:40:08.945Z,4.240
2023-11-16T05:41:09.562Z,5.280
2023-11-16T05:42:09.146Z,4.880
2023-11-16T05:45:08.963Z,3.720
2023-11-16T05:46:09.017Z,3.840
2023-11-16T05:47:08.832Z,4.480
2023-11-16T05:48:09.565Z,7.120
2023-11-16T05:49:09.309Z,4.160
2023-11-16T05:52:09.480Z,5.920
2023-11-16T05:53:09.046Z,7.720
2023-11-16T05:54:09.713Z,8.026
2023-11-16T05:55:09.458Z,4.515
2023-11-16T05:57:09.527Z,6.480
2023-11-16T05:58:09.209Z,5.160
2023-11-16T06:00:09.393Z,7.640
2023-11-16T06:01:09.221Z,4.280
2023-11-16T06:04:08.921Z,7.810
2023-11-16T06:05:09.149Z,5.440
2023-11-16T06:06:09.591Z,4.760
2023-11-16T06:07:09.229Z,4.400
2023-11-16T06:08:08.891Z,6.760
2023-11-16T06:09:09.401Z,7.240
2023-11-16T06:10:09.152Z,5.440
2023-11-16T06:12:09.256Z,5.320
2023-11-16T06:13:08.908Z,7.640
2023-11-16T06:14:09.456Z,7.760
2023-11-16T06:16:08.915Z,6.400
2023-11-16T06:17:09.643Z,7.003
2023-11-16T06:18:09.146Z,5.369
2023-11-16T06:19:09.186Z,3.000
2023-11-16T06:20:09.674Z,3.895
2023-11-16T06:21:09.168Z,4.637
2023-11-16T06:24:09.051Z,4.360
2023-11-16T06:27:09.450Z,4.240
2023-11-16T06:28:09.309Z,6.760
2023-11-16T06:30:09.392Z,3.960
2023-11-16T06:31:09.558Z,5.075
2023-11-16T06:32:09.170Z,4.108
2023-11-16T06:34:08.684Z,5.800
2023-11-16T06:35:09.188Z,4.720
2023-11-16T06:36:08.928Z,4.960
2023-11-16T06:37:08.752Z,4.480
2023-11-16T06:38:09.252Z,4.800
2023-11-16T06:40:09.600Z,7.279
2023-11-16T06:41:09.134Z,7.688
2023-11-16T06:45:09.602Z,6.600
2023-11-16T06:46:09.287Z,5.520
2023-11-16T06:49:09.626Z,5.508
2023-11-16T06:50:09.114Z,3.214
2023-11-16T06:51:09.627Z,6.570
2023-11-16T06:52:09.395Z,7.607
2023-11-16T06:54:09.421Z,6.360
2023-11-16T06:56:09.010Z,5.480
2023-11-16T06:57:09.543Z,6.920
2023-11-16T06:58:09.345Z,8.000
2023-11-16T07:00:08.716Z,8.880
2023-11-16T07:01:08.764Z,5.400
2023-11-16T07:02:09.590Z,5.600
2023-11-16T07:03:09.238Z,5.680
2023-11-16T07:04:09.654Z,6.200
2023-11-16T07:06:09.240Z,5.640
2023-11-16T07:07:08.941Z,5.200
2023-11-16T07:08:09.455Z,5.480
2023-11-16T07:10:08.760Z,6.600
2023-11-16T07:11:09.390Z,5.360
2023-11-16T07:12:08.985Z,5.480
2023-11-16T07:13:08.717Z,9.280
2023-11-16T07:14:09.228Z,7.400
2023-11-16T07:15:08.806Z,7.440
2023-11-16T07:16:08.799Z,6.200
2023-11-16T07:17:09.684Z,6.720
2023-11-16T07:18:09.906Z,9.049
2023-11-16T07:19:09.507Z,5.776
2023-11-16T07:22:08.727Z,7.400
2023-11-16T07:23:09.270Z,5.920
2023-11-16T07:24:08.792Z,6.640
2023-11-16T07:25:09.598Z,7.960
2023-11-16T07:26:09.449Z,7.160
2023-11-16T07:27:09.117Z,5.440
2023-11-16T07:28:08.921Z,6.160
2023-11-16T07:29:09.471Z,3.240
2023-11-16T07:32:09.005Z,8.280
2023-11-16T07:33:11.047Z,4.320
2023-11-16T07:34:09.250Z,5.320
2023-11-16T07:38:08.894Z,5.960
2023-11-16T07:39:09.400Z,6.920
2023-11-16T07:40:09.174Z,7.040
2023-11-16T07:41:09.309Z,5.480
2023-11-16T07:43:08.740Z,6.120
2023-11-16T07:44:09.287Z,5.280
2023-11-16T07:45:08.890Z,2.760
2023-11-16T07:46:09.598Z,2.007
2023-11-16T07:49:09.674Z,4.485
2023-11-16T07:50:09.453Z,5.492
2023-11-16T07:53:09.586Z,4.440
2023-11-16T07:54:09.433Z,4.240
2023-11-16T07:56:08.702Z,6.480
2023-11-16T07:57:09.377Z,5.240
2023-11-16T07:58:09.205Z,4.120
2023-11-16T07:59:08.773Z,4.360
2023-11-16T08:00:12.863Z,4.160
2023-11-16T08:02:09.124Z,4.880
2023-11-16T08:03:09.952Z,5.233
2023-11-16T08:04:08.891Z,3.783
2023-11-16T08:05:09.574Z,2.880
2023-11-16T08:07:08.681Z,2.880
2023-11-16T08:08:09.193Z,1.840
2023-11-16T08:09:08.736Z,1.960
2023-11-16T08:10:09.079Z,2.080
2023-11-16T08:11:09.673Z,2.400
2023-11-16T08:12:09.306Z,3.051
2023-11-16T08:14:09.464Z,4.120
2023-11-16T08:15:09.054Z,3.360
2023-11-16T08:16:09.204Z,2.360
2023-11-16T08:17:09.156Z,4.080
2023-11-16T08:18:09.755Z,3.580
2023-11-16T08:19:09.548Z,4.393
2023-11-16T08:20:09.065Z,3.320
2023-11-16T08:21:09.601Z,3.580
2023-11-16T08:22:09.284Z,4.922
2023-11-16T08:24:09.419Z,2.760
2023-11-16T08:25:09.223Z,3.760
2023-11-16T08:26:09.239Z,2.640
2023-11-16T08:28:08.827Z,2.040
2023-11-16T08:29:09.389Z,3.360
2023-11-16T08:30:08.963Z,4.760
2023-11-16T08:31:12.985Z,4.131
2023-11-16T08:32:08.915Z,4.556
2023-11-16T08:33:09.663Z,2.960
2023-11-16T08:34:09.604Z,3.520
2023-11-16T08:35:09.117Z,3.000
2023-11-16T08:36:09.640Z,2.321
2023-11-16T08:37:08.902Z,3.132
2023-11-16T08:38:09.671Z,5.200
2023-11-16T08:40:09.205Z,5.080
2023-11-16T08:42:09.403Z,5.400
2023-11-16T08:43:08.985Z,5.600
2023-11-16T08:44:09.661Z,2.990
2023-11-16T08:45:09.139Z,2.685
2023-11-16T08:46:09.352Z,3.440
2023-11-16T08:48:09.609Z,6.080
2023-11-16T08:49:08.999Z,3.720
2023-11-16T08:51:12.152Z,2.160
2023-11-16T08:52:08.697Z,2.560
2023-11-16T08:53:09.372Z,2.440
2023-11-16T08:54:09.253Z,4.520
2023-11-16T08:55:08.927Z,4.160
2023-11-16T08:56:09.580Z,5.440
2023-11-16T08:57:08.857Z,3.800
2023-11-16T08:58:09.429Z,3.440
2023-11-16T08:59:09.459Z,2.160
2023-11-16T09:00:09.594Z,3.580
2023-11-16T09:01:09.616Z,3.661
2023-11-16T09:03:10.066Z,5.154
2023-11-16T09:04:09.232Z,4.597
2023-11-16T09:05:09.421Z,5.880
2023-11-16T09:06:08.970Z,6.840
2023-11-16T09:07:09.561Z,6.295
2023-11-16T09:08:09.167Z,2.725
2023-11-16T09:09:09.122Z,2.240
2023-11-16T09:11:09.497Z,5.600
2023-11-16T09:13:09.517Z,4.520
2023-11-16T09:14:09.239Z,5.600
2023-11-16T09:15:08.860Z,6.320
2023-11-16T09:16:09.571Z,7.880
2023-11-16T09:18:10.992Z,6.160
2023-11-16T09:19:09.231Z,4.240
2023-11-16T09:20:09.124Z,2.120
2023-11-16T09:21:09.630Z,2.400
2023-11-16T09:22:09.366Z,2.441
2023-11-16T09:23:11.171Z,2.240
2023-11-16T09:24:09.102Z,1.400
2023-11-16T09:25:09.786Z,3.344
2023-11-16T09:26:09.372Z,2.888
2023-11-16T09:28:08.967Z,3.280
2023-11-16T09:29:12.433Z,3.895
2023-11-16T09:30:09.060Z,1.627
2023-11-16T09:31:08.908Z,2.320
2023-11-16T09:32:09.630Z,3.816
2023-11-16T09:33:09.397Z,7.119
2023-11-16T09:34:09.093Z,4.920
2023-11-16T09:35:15.156Z,5.115
2023-11-16T09:36:10.342Z,2.766
2023-11-16T09:38:09.012Z,5.400
2023-11-16T09:39:09.652Z,6.098
2023-11-16T09:40:09.256Z,6.508
2023-11-16T09:42:08.836Z,4.560
2023-11-16T09:43:09.136Z,4.640
2023-11-16T09:44:09.738Z,6.610
2023-11-16T09:45:09.287Z,8.258
2023-11-16T09:46:09.145Z,6.040
2023-11-16T09:47:09.261Z,10.080
2023-11-16T09:48:08.753Z,7.040
2023-11-16T09:49:09.665Z,8.184
2023-11-16T09:50:08.923Z,7.159
2023-11-16T09:51:09.545Z,6.200
2023-11-16T09:52:09.271Z,6.680
2023-11-16T09:54:09.690Z,4.200
2023-11-16T09:55:09.380Z,3.560
2023-11-16T09:57:08.740Z,5.160
2023-11-16T09:58:09.684Z,6.280
2023-11-16T09:59:09.408Z,5.120
2023-11-16T10:00:08.933Z,3.680
2023-11-16T10:01:08.987Z,9.880
2023-11-16T10:02:09.034Z,7.360
2023-11-16T10:03:09.016Z,6.520
2023-11-16T10:04:09.471Z,4.600
2023-11-16T10:05:08.837Z,10.320
2023-11-16T10:06:09.239Z,8.280
2023-11-16T10:07:09.009Z,6.640
2023-11-16T10:08:09.495Z,7.480
2023-11-16T10:09:09.093Z,6.560
2023-11-16T10:10:08.739Z,5.240
2023-11-16T10:11:09.299Z,7.200
2023-11-16T10:12:08.810Z,7.640
2023-11-16T10:13:09.538Z,9.167
2023-11-16T10:15:09.757Z,7.279
2023-11-16T10:16:09.373Z,5.369
2023-11-16T10:17:09.322Z,5.760
2023-11-16T10:18:08.989Z,8.280
2023-11-16T10:20:09.231Z,7.920
2023-11-16T10:21:08.774Z,5.480
2023-11-16T10:22:09.584Z,3.480
2023-11-16T10:23:09.208Z,5.720
2023-11-16T10:25:09.502Z,6.880
2023-11-16T10:26:09.114Z,7.400
2023-11-16T10:29:08.978Z,7.960
2023-11-16T10:30:09.469Z,7.240
2023-11-16T10:31:09.321Z,4.400
2023-11-16T10:34:09.394Z,3.200
2023-11-16T10:35:08.915Z,2.840
2023-11-16T10:36:09.489Z,5.360
2023-11-16T10:39:09.337Z,3.960
2023-11-16T10:40:09.089Z,4.080
2023-11-16T10:41:09.684Z,6.334
2023-11-16T10:44:09.423Z,3.440
2023-11-16T10:45:09.046Z,5.760
2023-11-16T10:46:09.854Z,7.121
2023-11-16T10:47:09.396Z,4.393
2023-11-16T10:49:09.311Z,3.120
2023-11-16T10:50:08.959Z,4.040
2023-11-16T10:51:09.547Z,4.720
2023-11-16T10:52:09.111Z,3.600
2023-11-16T10:53:09.695Z,4.643
2023-11-16T10:55:09.200Z,3.880
2023-11-16T10:57:09.473Z,4.800
2023-11-16T10:59:09.512Z,4.680
2023-11-16T11:00:09.079Z,4.200
2023-11-16T11:01:09.646Z,2.439
2023-11-16T11:02:09.735Z,2.040
2023-11-16T11:04:12.267Z,2.240
2023-11-16T11:05:09.120Z,0.400
2023-11-16T11:06:09.048Z,1.720
2023-11-16T11:07:09.255Z,1.280
2023-11-16T11:08:08.815Z,1.160
2023-11-16T11:09:09.565Z,2.040
2023-11-16T11:10:09.099Z,2.440
2023-11-16T11:11:09.617Z,4.761
2023-11-16T11:14:09.060Z,4.920
2023-11-16T11:15:09.667Z,4.879
2023-11-16T11:16:08.923Z,9.112
2023-11-16T11:17:09.115Z,7.360
2023-11-16T11:18:09.723Z,6.334
2023-11-16T11:19:09.374Z,4.719
2023-11-16T11:22:09.456Z,4.881
2023-11-16T11:23:09.081Z,6.840
2023-11-16T11:24:10.066Z,5.154
2023-11-16T11:26:09.322Z,2.888
2023-11-16T11:27:08.892Z,4.480
2023-11-16T11:28:09.492Z,5.640
2023-11-16T11:29:09.089Z,4.560
2023-11-16T11:32:12.283Z,0.840
2023-11-16T11:33:12.822Z,2.440
2023-11-16T11:35:09.085Z,1.600
2023-11-16T11:36:09.722Z,3.502
2023-11-16T11:37:09.486Z,4.800
2023-11-16T11:39:09.300Z,3.960
2023-11-16T11:40:09.027Z,4.520
2023-11-16T11:41:09.611Z,5.075
2023-11-16T11:42:09.155Z,4.719
2023-11-16T11:45:09.206Z,2.920
2023-11-16T11:46:09.082Z,2.800
2023-11-16T11:49:09.374Z,3.702
2023-11-16T11:51:08.847Z,2.680
2023-11-16T11:52:09.004Z,1.560
2023-11-16T11:53:09.608Z,2.400
2023-11-16T11:54:09.234Z,4.271
2023-11-16T11:56:08.897Z,2.000
2023-11-16T11:57:09.365Z,1.840
2023-11-16T11:58:09.736Z,0.944
2023-11-16T11:59:09.392Z,0.529
2023-11-16T12:00:08.962Z,1.080
2023-11-16T12:02:09.275Z,4.920
2023-11-16T12:03:09.060Z,5.560
2023-11-16T12:04:16.394Z,3.480
2023-11-16T12:05:10.138Z,3.816
2023-11-16T12:06:09.820Z,5.817
2023-11-16T12:07:09.006Z,5.240
2023-11-16T12:08:08.776Z,4.880
2023-11-16T12:09:09.426Z,5.480
2023-11-16T12:10:09.058Z,5.720
2023-11-16T12:11:13.167Z,7.200
2023-11-16T12:12:08.725Z,5.858
2023-11-16T12:13:09.470Z,4.760
2023-11-16T12:15:09.264Z,7.680
2023-11-16T12:16:09.061Z,4.280
2023-11-16T12:17:09.322Z,6.120
2023-11-16T12:18:08.975Z,4.080
2023-11-16T12:19:08.767Z,6.880
2023-11-16T12:20:09.253Z,5.880
2023-11-16T12:21:08.799Z,5.960
2023-11-16T12:22:09.512Z,4.400
2023-11-16T12:23:09.542Z,4.080
2023-11-16T12:24:09.139Z,4.040
2023-11-16T12:25:08.959Z,3.720
2023-11-16T12:26:09.531Z,5.320
2023-11-16T12:27:09.075Z,4.560
2023-11-16T12:29:09.268Z,4.680
2023-11-16T12:30:08.927Z,2.600
2023-11-16T12:33:09.676Z,5.840
2023-11-16T12:34:09.544Z,4.800
2023-11-16T12:35:09.056Z,3.320
2023-11-16T12:36:09.738Z,5.587
2023-11-16T12:37:09.197Z,5.329
2023-11-16T12:39:09.349Z,6.720
2023-11-16T12:40:08.845Z,5.600
2023-11-16T12:41:09.557Z,5.115
2023-11-16T12:44:09.199Z,6.320
2023-11-16T12:45:08.703Z,4.640
2023-11-16T12:46:09.447Z,5.200
2023-11-16T12:47:12.258Z,4.800
2023-11-16T12:48:09.026Z,5.939
2023-11-16T12:49:09.866Z,4.800
2023-11-16T12:50:09.588Z,4.271
2023-11-16T12:53:12.428Z,6.334
2023-11-16T12:54:09.486Z,6.142
2023-11-16T12:55:09.161Z,6.200
2023-11-16T12:56:08.853Z,7.320
2023-11-16T12:59:10.931Z,6.760
2023-11-16T13:00:09.188Z,6.200
2023-11-16T13:01:09.914Z,6.570
2023-11-16T13:02:08.779Z,4.800
2023-11-16T13:03:09.608Z,2.680
2023-11-16T13:04:09.405Z,5.800
2023-11-16T13:05:13.598Z,5.351
2023-11-16T13:06:08.795Z,6.631
2023-11-16T13:07:09.777Z,5.193
2023-11-16T13:08:09.402Z,4.271
2023-11-16T13:09:08.990Z,3.840
2023-11-16T13:12:20.751Z,4.000
2023-11-16T13:13:09.045Z,7.160
2023-11-16T13:14:09.563Z,8.760
2023-11-16T13:15:09.114Z,5.600
2023-11-16T13:16:08.855Z,6.280
2023-11-16T13:17:09.325Z,5.280
2023-11-16T13:20:09.352Z,5.492
2023-11-16T13:21:08.961Z,7.400
2023-11-16T13:22:08.873Z,5.400
2023-11-16T13:23:12.890Z,4.600
2023-11-16T13:25:09.016Z,4.400
2023-11-16T13:26:09.555Z,4.320
2023-11-16T13:27:09.129Z,3.080
2023-11-16T13:28:09.699Z,6.570
2023-11-16T13:29:09.858Z,7.688
2023-11-16T13:30:09.275Z,5.080
2023-11-16T13:31:10.013Z,4.320
2023-11-16T13:32:09.813Z,4.997
2023-11-16T13:33:09.396Z,5.329
2023-11-16T13:34:09.041Z,6.960
2023-11-16T13:37:09.732Z,6.177
2023-11-16T13:38:09.316Z,7.851
2023-11-16T13:39:08.809Z,5.280
2023-11-16T13:40:09.603Z,4.600
2023-11-16T13:41:11.131Z,4.840
2023-11-16T13:42:09.275Z,6.120
2023-11-16T13:43:08.946Z,5.920
2023-11-16T13:44:09.631Z,8.616
2023-11-16T13:45:09.150Z,5.980
2023-11-16T13:48:09.729Z,5.036
2023-11-16T13:49:09.464Z,4.271
2023-11-16T13:52:09.070Z,6.600
2023-11-16T13:53:09.657Z,3.502
2023-11-16T13:54:09.238Z,4.231
2023-11-16T13:57:08.973Z,1.320
2023-11-16T13:58:09.708Z,3.160
2023-11-16T13:59:09.253Z,4.120
2023-11-16T14:02:09.335Z,4.360
2023-11-16T14:03:09.364Z,3.320
2023-11-16T14:04:10.045Z,2.243
2023-11-16T14:05:12.249Z,1.912
2023-11-16T14:06:09.437Z,3.400
2023-11-16T14:07:08.893Z,3.440
2023-11-16T14:08:09.601Z,3.040
2023-11-16T14:09:09.256Z,2.480
2023-11-16T14:10:16.963Z,1.640
2023-11-16T14:11:11.571Z,2.200
2023-11-16T14:12:08.981Z,2.640
2023-11-16T14:13:09.570Z,2.400
2023-11-16T14:14:09.078Z,3.560
2023-11-16T14:17:09.455Z,2.847
2023-11-16T14:19:09.093Z,1.040
2023-11-16T14:20:08.830Z,1.040
2023-11-16T14:21:09.480Z,2.040
2023-11-16T14:24:14.506Z,1.652
2023-11-16T14:25:09.210Z,2.278
2023-11-16T14:26:09.015Z,2.720
2023-11-16T14:27:09.529Z,1.840
2023-11-16T14:28:09.044Z,1.280
2023-11-16T14:29:12.673Z,2.597
2023-11-16T14:30:09.503Z,2.278
2023-11-16T14:32:09.303Z,1.880
2023-11-16T14:33:08.826Z,0.920
2023-11-16T14:34:09.716Z,0.197
2023-11-16T14:35:17.197Z,0.773
2023-11-16T14:36:09.528Z,1.320
2023-11-16T14:37:09.172Z,4.000
2023-11-16T14:38:08.665Z,1.720
2023-11-16T14:39:09.218Z,2.600
2023-11-16T14:40:08.805Z,1.440
2023-11-16T14:41:09.425Z,1.720
2023-11-16T14:44:09.211Z,1.520
2023-11-16T14:45:08.772Z,0.280
2023-11-16T14:46:09.362Z,1.360
2023-11-16T14:47:18.107Z,2.120
2023-11-16T14:49:09.194Z,2.400
2023-11-16T14:50:08.954Z,1.800
2023-11-16T14:52:09.292Z,1.680
2023-11-16T14:53:09.933Z,1.480
2023-11-16T14:54:09.578Z,2.640
2023-11-16T14:55:09.376Z,2.800
2023-11-16T14:56:09.033Z,2.760
2023-11-16T14:57:15.511Z,1.338
2023-11-16T14:58:09.266Z,2.034
2023-11-16T14:59:08.799Z,1.200
2023-11-16T15:00:09.369Z,2.240
2023-11-16T15:01:08.955Z,1.160
2023-11-16T15:02:08.993Z,1.280
2023-11-16T15:03:09.864Z,2.560
2023-11-16T15:04:09.232Z,1.920
2023-11-16T15:05:16.783Z,3.160
2023-11-16T15:07:09.245Z,3.376
2023-11-16T15:08:08.986Z,3.120
2023-11-16T15:09:11.744Z,1.534
2023-11-16T15:11:08.707Z,1.200
2023-11-16T15:12:09.198Z,1.000
2023-11-16T15:13:08.834Z,2.400
2023-11-16T15:14:08.809Z,2.240
2023-11-16T15:15:12.437Z,2.120
2023-11-16T15:16:08.851Z,2.200
2023-11-16T15:17:09.639Z,1.652
2023-11-16T15:18:09.130Z,0.610
2023-11-16T15:20:24.355Z,2.360
2023-11-16T15:22:09.407Z,3.376
2023-11-16T15:23:08.908Z,2.880
2023-11-16T15:24:09.454Z,4.400
2023-11-16T15:25:09.106Z,3.520
2023-11-16T15:26:17.172Z,3.480
2023-11-16T15:28:09.698Z,2.007
2023-11-16T15:29:09.215Z,1.505
2023-11-16T15:30:08.700Z,2.080
2023-11-16T15:31:09.801Z,2.520
2023-11-16T15:32:08.929Z,3.320
2023-11-16T15:33:12.284Z,2.960
2023-11-16T15:34:09.819Z,2.793
2023-11-16T15:35:09.901Z,1.680
2023-11-16T15:36:09.624Z,1.120
2023-11-16T15:37:09.400Z,2.197
2023-11-16T15:39:08.977Z,1.840
2023-11-16T15:40:10.144Z,2.361
2023-11-16T15:41:08.935Z,3.702
2023-11-16T15:42:09.424Z,2.360
2023-11-16T15:44:09.641Z,0.826
2023-11-16T15:45:09.324Z,1.180
2023-11-16T15:48:08.843Z,2.000
2023-11-16T15:49:09.635Z,1.440
2023-11-16T15:50:09.727Z,1.770
2023-11-16T15:51:09.390Z,1.261
2023-11-16T15:53:09.617Z,2.007
2023-11-16T15:54:09.147Z,1.912
2023-11-16T15:55:08.939Z,0.920
2023-11-16T15:56:09.659Z,1.377
2023-11-16T15:57:09.168Z,2.034
2023-11-16T16:00:08.849Z,2.800
2023-11-16T16:01:09.251Z,2.840
2023-11-16T16:02:09.738Z,2.597
2023-11-16T16:03:09.181Z,2.115
2023-11-16T16:04:09.103Z,3.120
2023-11-16T16:05:09.481Z,3.040
2023-11-16T16:06:09.462Z,1.680
2023-11-16T16:07:08.984Z,0.080
2023-11-16T16:08:09.492Z,0.040
2023-11-16T16:09:08.898Z,0.840
2023-11-16T16:10:09.507Z,1.560
2023-11-16T16:11:09.316Z,2.280
2023-11-16T16:15:11.548Z,2.125
2023-11-16T16:16:09.148Z,1.220
2023-11-16T16:19:09.651Z,1.840
2023-11-16T16:20:09.231Z,1.480
2023-11-16T16:21:08.819Z,2.400
2023-11-16T16:22:09.622Z,0.560
2023-11-16T16:24:08.873Z,2.480
2023-11-16T16:25:09.514Z,1.520
2023-11-16T16:26:09.053Z,0.440
2023-11-16T16:27:09.737Z,1.967
2023-11-16T16:30:09.281Z,2.040
2023-11-16T16:31:09.451Z,2.480
2023-11-16T16:32:09.103Z,2.680